createdAt,value
2022-10-06T00:01:14.866Z,12.70
2022-10-06T00:03:43.834Z,12.80
2022-10-06T00:06:15.706Z,12.80
2022-10-06T00:08:45.119Z,12.80
2022-10-06T00:11:15.130Z,12.80
2022-10-06T00:13:43.670Z,12.80
2022-10-06T00:16:17.923Z,12.80
2022-10-06T00:18:46.006Z,12.80
2022-10-06T00:21:14.253Z,12.70
2022-10-06T00:23:42.416Z,12.60
2022-10-06T00:26:17.181Z,12.70
2022-10-06T00:28:48.929Z,12.70
2022-10-06T00:31:19.673Z,12.70
2022-10-06T00:33:49.253Z,12.60
2022-10-06T00:36:17.338Z,12.60
2022-10-06T00:38:44.926Z,12.70
2022-10-06T00:41:18.467Z,12.60
2022-10-06T00:43:52.291Z,12.60
2022-10-06T00:46:46.930Z,12.50
2022-10-06T00:49:31.242Z,12.50
2022-10-06T00:52:07.193Z,12.50
2022-10-06T00:54:36.342Z,12.50
2022-10-06T00:57:05.595Z,12.40
2022-10-06T00:59:34.527Z,12.40
2022-10-06T01:02:17.304Z,12.40
2022-10-06T01:04:50.927Z,12.30
2022-10-06T01:07:22.076Z,12.30
2022-10-06T01:09:50.437Z,12.20
2022-10-06T01:12:20.148Z,12.20
2022-10-06T01:14:48.279Z,12.20
2022-10-06T01:17:37.474Z,12.10
2022-10-06T01:20:10.138Z,12.10
2022-10-06T01:22:46.016Z,12.00
2022-10-06T01:25:16.833Z,12.00
2022-10-06T01:27:53.482Z,12.00
2022-10-06T01:30:41.786Z,12.00
2022-10-06T01:33:09.499Z,12.00
2022-10-06T01:35:37.658Z,12.00
2022-10-06T01:38:05.259Z,12.10
2022-10-06T01:40:33.095Z,12.10
2022-10-06T01:43:02.363Z,12.00
2022-10-06T01:45:30.527Z,11.90
2022-10-06T01:47:58.369Z,11.90
2022-10-06T01:50:26.115Z,11.90
2022-10-06T01:52:56.034Z,11.90
2022-10-06T01:55:27.383Z,11.80
2022-10-06T01:57:57.514Z,11.80
2022-10-06T02:00:25.811Z,11.80
2022-10-06T02:02:53.562Z,11.80
2022-10-06T02:05:21.205Z,11.70
2022-10-06T02:07:51.818Z,11.70
2022-10-06T02:10:19.859Z,11.70
2022-10-06T02:12:53.443Z,11.60
2022-10-06T02:15:23.553Z,11.70
2022-10-06T02:17:53.055Z,11.60
2022-10-06T02:20:21.302Z,11.60
2022-10-06T02:22:50.710Z,11.60
2022-10-06T02:25:18.746Z,11.60
2022-10-06T02:27:46.635Z,11.60
2022-10-06T02:30:14.600Z,11.60
2022-10-06T02:32:44.201Z,11.60
2022-10-06T02:35:12.907Z,11.60
2022-10-06T02:37:42.151Z,11.50
2022-10-06T02:40:12.047Z,11.50
2022-10-06T02:42:39.816Z,11.40
2022-10-06T02:45:09.052Z,11.30
2022-10-06T02:47:38.015Z,11.30
2022-10-06T02:50:07.986Z,11.30
2022-10-06T02:52:41.064Z,11.20
2022-10-06T02:55:10.009Z,11.20
2022-10-06T02:57:38.074Z,11.20
2022-10-06T03:00:07.766Z,11.20
2022-10-06T03:02:35.760Z,11.10
2022-10-06T03:05:03.896Z,11.10
2022-10-06T03:07:31.549Z,11.10
2022-10-06T03:09:59.123Z,11.10
2022-10-06T03:12:28.025Z,11.00
2022-10-06T03:14:55.650Z,11.00
2022-10-06T03:17:23.615Z,11.00
2022-10-06T03:19:57.098Z,11.00
2022-10-06T03:22:25.681Z,10.90
2022-10-06T03:24:56.029Z,10.90
2022-10-06T03:27:23.736Z,10.80
2022-10-06T03:29:54.472Z,10.80
2022-10-06T03:32:24.614Z,10.80
2022-10-06T03:35:08.318Z,10.80
2022-10-06T03:37:38.479Z,10.80
2022-10-06T03:40:13.442Z,10.70
2022-10-06T03:42:42.687Z,10.80
2022-10-06T03:45:10.926Z,10.70
2022-10-06T03:47:38.550Z,10.80
2022-10-06T03:50:06.866Z,10.80
2022-10-06T03:52:34.557Z,10.70
2022-10-06T03:55:02.355Z,10.70
2022-10-06T03:57:30.021Z,10.70
2022-10-06T03:59:59.798Z,10.70
2022-10-06T04:02:27.650Z,10.70
2022-10-06T04:04:55.996Z,10.60
2022-10-06T04:07:25.005Z,10.60
2022-10-06T04:09:53.292Z,10.50
2022-10-06T04:12:20.953Z,10.50
2022-10-06T04:14:48.613Z,10.50
2022-10-06T04:17:16.586Z,10.50
2022-10-06T04:19:44.470Z,10.50
2022-10-06T04:22:12.113Z,10.50
2022-10-06T04:24:40.812Z,10.50
2022-10-06T04:27:27.361Z,10.50
2022-10-06T04:30:11.466Z,10.50
2022-10-06T04:32:40.294Z,10.40
2022-10-06T04:35:08.493Z,10.40
2022-10-06T04:37:36.144Z,10.50
2022-10-06T04:40:05.092Z,10.40
2022-10-06T04:42:35.407Z,10.40
2022-10-06T04:45:07.167Z,10.40
2022-10-06T04:47:35.454Z,10.30
2022-10-06T04:50:04.582Z,10.20
2022-10-06T04:52:32.302Z,10.20
2022-10-06T04:54:59.981Z,10.10
2022-10-06T04:57:28.212Z,10.00
2022-10-06T05:00:15.182Z,9.90
2022-10-06T05:02:45.973Z,9.90
2022-10-06T05:05:13.745Z,9.90
2022-10-06T05:07:45.449Z,9.90
2022-10-06T05:10:13.789Z,9.80
2022-10-06T05:12:41.776Z,9.80
2022-10-06T05:15:10.828Z,9.70
2022-10-06T05:17:38.612Z,9.70
2022-10-06T05:20:07.291Z,9.80
2022-10-06T05:22:34.910Z,9.70
2022-10-06T05:25:02.704Z,9.70
2022-10-06T05:27:30.362Z,9.60
2022-10-06T05:29:58.151Z,9.60
2022-10-06T05:32:25.954Z,9.50
2022-10-06T05:34:53.658Z,9.60
2022-10-06T05:37:21.290Z,9.60
2022-10-06T05:39:48.904Z,9.50
2022-10-06T05:42:17.742Z,9.50
2022-10-06T05:44:45.354Z,9.60
2022-10-06T05:47:15.432Z,9.80
2022-10-06T05:49:43.231Z,9.80
2022-10-06T05:52:11.346Z,9.70
2022-10-06T05:54:38.999Z,9.70
2022-10-06T05:57:08.212Z,9.70
2022-10-06T05:59:36.127Z,9.60
2022-10-06T06:02:05.434Z,9.60
2022-10-06T06:04:40.383Z,9.70
2022-10-06T06:07:09.618Z,9.70
2022-10-06T06:09:38.832Z,9.80
2022-10-06T06:12:06.716Z,9.80
2022-10-06T06:15:00.234Z,9.80
2022-10-06T06:17:33.945Z,9.90
2022-10-06T06:20:04.790Z,9.90
2022-10-06T06:22:32.363Z,9.90
2022-10-06T06:25:00.020Z,9.90
2022-10-06T06:27:27.648Z,9.90
2022-10-06T06:29:57.357Z,9.90
2022-10-06T06:32:26.728Z,9.90
2022-10-06T06:34:54.391Z,9.90
2022-10-06T06:37:22.650Z,10.00
2022-10-06T06:39:50.371Z,10.00
2022-10-06T06:42:18.837Z,10.00
2022-10-06T06:44:49.292Z,10.00
2022-10-06T06:47:37.379Z,10.10
2022-10-06T06:50:10.275Z,10.10
2022-10-06T06:52:39.692Z,10.30
2022-10-06T06:55:10.344Z,10.50
2022-10-06T06:57:37.951Z,10.70
2022-10-06T07:00:08.432Z,10.80
2022-10-06T07:02:38.168Z,10.90
2022-10-06T07:05:06.857Z,11.10
2022-10-06T07:07:36.044Z,11.20
2022-10-06T07:10:04.537Z,11.40
2022-10-06T07:12:34.353Z,11.60
2022-10-06T07:15:20.708Z,11.60
2022-10-06T07:18:11.482Z,11.70
2022-10-06T07:20:58.132Z,11.90
2022-10-06T07:23:44.404Z,12.10
2022-10-06T07:26:16.609Z,12.40
2022-10-06T07:28:45.346Z,12.30
2022-10-06T07:31:19.281Z,12.20
2022-10-06T07:33:48.084Z,12.10
2022-10-06T07:36:16.832Z,12.00
2022-10-06T07:38:45.052Z,12.00
2022-10-06T07:41:20.603Z,12.00
2022-10-06T07:43:57.952Z,12.00
2022-10-06T07:46:28.435Z,12.10
2022-10-06T07:49:10.573Z,12.10
2022-10-06T07:51:38.202Z,12.10
2022-10-06T07:54:08.342Z,12.20
2022-10-06T07:56:46.516Z,12.20
2022-10-06T07:59:14.296Z,12.20
2022-10-06T08:01:44.517Z,12.30
2022-10-06T08:04:13.713Z,12.40
2022-10-06T08:06:42.097Z,12.50
2022-10-06T08:09:09.888Z,12.60
2022-10-06T08:11:37.481Z,12.70
2022-10-06T08:14:05.096Z,12.70
2022-10-06T08:16:32.837Z,12.80
2022-10-06T08:19:00.590Z,12.90
2022-10-06T08:21:33.289Z,13.00
2022-10-06T08:24:09.825Z,13.10
2022-10-06T08:26:37.601Z,13.30
2022-10-06T08:29:05.764Z,13.40
2022-10-06T08:31:40.967Z,13.50
2022-10-06T08:34:11.992Z,13.60
2022-10-06T08:36:48.262Z,13.80
2022-10-06T08:39:31.708Z,14.10
2022-10-06T08:41:59.506Z,14.10
2022-10-06T08:44:41.170Z,14.20
2022-10-06T08:47:20.436Z,14.40
2022-10-06T08:49:50.468Z,14.60
2022-10-06T08:52:46.226Z,14.60
2022-10-06T08:55:16.497Z,14.60
2022-10-06T08:58:06.036Z,14.70
2022-10-06T09:00:34.132Z,14.60
2022-10-06T09:03:02.525Z,14.70
2022-10-06T09:05:32.045Z,14.70
2022-10-06T09:08:33.218Z,14.80
2022-10-06T09:11:20.053Z,14.90
2022-10-06T09:14:22.033Z,14.80
2022-10-06T09:17:00.599Z,14.90
2022-10-06T09:19:46.626Z,15.00
2022-10-06T09:22:19.945Z,15.00
2022-10-06T09:24:51.360Z,14.90
2022-10-06T09:27:40.814Z,14.80
2022-10-06T09:30:12.996Z,14.80
2022-10-06T09:32:54.744Z,14.80
2022-10-06T09:35:24.639Z,14.90
2022-10-06T09:38:08.606Z,14.80
2022-10-06T09:40:38.236Z,15.00
2022-10-06T09:43:27.907Z,15.00
2022-10-06T09:46:21.258Z,15.10
2022-10-06T09:49:15.283Z,15.20
2022-10-06T09:52:13.146Z,15.10
2022-10-06T09:54:43.360Z,15.10
2022-10-06T09:57:22.643Z,15.20
2022-10-06T09:59:50.380Z,15.20
2022-10-06T10:02:36.996Z,15.20
2022-10-06T10:05:21.524Z,15.30
2022-10-06T10:08:10.115Z,15.50
2022-10-06T10:10:41.243Z,15.60
2022-10-06T10:13:26.744Z,15.60
2022-10-06T10:15:59.728Z,15.50
2022-10-06T10:18:31.101Z,15.50
2022-10-06T10:21:07.086Z,15.50
2022-10-06T10:23:39.384Z,15.70
2022-10-06T10:26:46.685Z,15.80
2022-10-06T10:29:33.442Z,15.80
2022-10-06T10:32:31.082Z,15.80
2022-10-06T10:35:16.680Z,15.90
2022-10-06T10:38:00.351Z,15.90
2022-10-06T10:40:32.247Z,16.00
2022-10-06T10:43:19.141Z,16.00
2022-10-06T10:46:16.199Z,16.10
2022-10-06T10:48:58.189Z,16.10
2022-10-06T10:52:03.508Z,16.20
2022-10-06T10:55:00.314Z,16.10
2022-10-06T10:57:40.449Z,16.10
2022-10-06T11:00:21.936Z,16.30
2022-10-06T11:02:54.895Z,16.50
2022-10-06T11:05:37.599Z,16.60
2022-10-06T11:08:13.471Z,16.80
2022-10-06T11:10:54.498Z,16.90
2022-10-06T11:13:42.443Z,16.90
2022-10-06T11:16:39.975Z,16.70
2022-10-06T11:19:22.981Z,16.70
2022-10-06T11:22:01.097Z,16.60
2022-10-06T11:24:48.214Z,16.60
2022-10-06T11:27:30.886Z,16.80
2022-10-06T11:30:19.678Z,16.90
2022-10-06T11:33:08.695Z,16.80
2022-10-06T11:35:40.041Z,16.90
2022-10-06T11:38:38.386Z,17.00
2022-10-06T11:41:18.157Z,17.10
2022-10-06T11:44:04.258Z,17.10
2022-10-06T11:46:50.161Z,17.00
2022-10-06T11:49:30.181Z,16.80
2022-10-06T11:52:17.680Z,16.80
2022-10-06T11:54:47.940Z,17.00
2022-10-06T11:57:30.602Z,17.00
2022-10-06T12:00:04.866Z,17.10
2022-10-06T12:02:35.347Z,16.90
2022-10-06T12:05:54.818Z,16.80
2022-10-06T12:08:07.895Z,16.80
2022-10-06T12:10:36.018Z,16.80
2022-10-06T12:19:47.394Z,16.80
2022-10-06T12:22:26.334Z,16.90
2022-10-06T12:25:15.881Z,17.00
2022-10-06T12:28:25.951Z,16.90
2022-10-06T12:31:18.742Z,16.90
2022-10-06T12:33:47.467Z,16.90
2022-10-06T12:36:29.273Z,16.90
2022-10-06T12:39:22.494Z,17.00
2022-10-06T12:42:02.491Z,17.10
2022-10-06T12:44:51.118Z,17.20
2022-10-06T12:47:37.464Z,17.30
2022-10-06T12:50:25.432Z,17.40
2022-10-06T12:53:11.989Z,17.40
2022-10-06T12:55:43.753Z,17.40
2022-10-06T12:58:20.225Z,17.40
2022-10-06T13:00:48.340Z,17.30
2022-10-06T13:03:20.938Z,17.30
2022-10-06T13:05:55.366Z,17.50
2022-10-06T13:08:28.208Z,17.60
2022-10-06T13:11:31.483Z,17.70
2022-10-06T13:14:13.614Z,17.90
2022-10-06T13:16:45.560Z,18.10
2022-10-06T13:19:25.444Z,18.30
2022-10-06T13:21:53.680Z,18.40
2022-10-06T13:24:26.727Z,18.40
2022-10-06T13:26:54.750Z,18.20
2022-10-06T13:29:25.573Z,18.00
2022-10-06T13:31:55.605Z,18.00
2022-10-06T13:34:34.677Z,18.10
2022-10-06T13:37:02.847Z,18.30
2022-10-06T13:39:31.804Z,18.50
2022-10-06T13:42:05.122Z,18.80
2022-10-06T13:44:54.083Z,19.00
2022-10-06T13:47:29.658Z,19.20
2022-10-06T13:50:06.368Z,19.20
2022-10-06T13:52:54.476Z,19.30
2022-10-06T13:55:25.762Z,19.40
2022-10-06T13:58:05.159Z,19.50
2022-10-06T14:01:00.730Z,19.50
2022-10-06T14:03:38.264Z,19.70
2022-10-06T14:06:16.878Z,19.80
2022-10-06T14:08:50.861Z,19.90
2022-10-06T14:11:28.068Z,20.00
2022-10-06T14:14:01.610Z,19.80
2022-10-06T14:16:29.756Z,19.60
2022-10-06T14:19:03.758Z,18.90
2022-10-06T14:21:44.899Z,18.40
2022-10-06T14:24:19.503Z,18.10
2022-10-06T14:26:50.941Z,18.10
2022-10-06T14:29:19.679Z,18.20
2022-10-06T14:31:49.034Z,18.30
2022-10-06T14:34:20.403Z,18.50
2022-10-06T14:36:55.130Z,18.30
2022-10-06T14:39:24.588Z,18.30
2022-10-06T14:41:52.244Z,18.20
2022-10-06T14:44:24.227Z,18.20
2022-10-06T14:46:52.406Z,18.20
2022-10-06T14:49:20.383Z,18.20
2022-10-06T14:51:48.111Z,18.30
2022-10-06T14:54:16.271Z,18.20
2022-10-06T14:56:44.070Z,18.30
2022-10-06T14:59:16.820Z,18.20
2022-10-06T15:01:45.661Z,18.20
2022-10-06T15:04:19.561Z,18.10
2022-10-06T15:07:06.209Z,18.10
2022-10-06T15:09:33.833Z,18.10
2022-10-06T15:12:01.625Z,18.10
2022-10-06T15:14:29.724Z,18.10
2022-10-06T15:17:00.863Z,18.10
2022-10-06T15:19:28.571Z,18.00
2022-10-06T15:21:56.350Z,18.00
2022-10-06T15:24:24.068Z,18.10
2022-10-06T15:27:10.214Z,18.00
2022-10-06T15:29:37.808Z,18.00
2022-10-06T15:32:06.643Z,18.10
2022-10-06T15:34:36.992Z,18.10
2022-10-06T15:37:05.635Z,18.00
2022-10-06T15:39:36.705Z,17.90
2022-10-06T15:42:05.244Z,17.80
2022-10-06T15:44:36.090Z,17.70
2022-10-06T15:47:07.106Z,17.60
2022-10-06T15:49:40.452Z,17.50
2022-10-06T15:52:11.787Z,17.40
2022-10-06T15:54:41.373Z,17.30
2022-10-06T15:57:15.036Z,17.20
2022-10-06T15:59:44.517Z,17.20
2022-10-06T16:02:17.368Z,17.10
2022-10-06T16:05:08.855Z,17.00
2022-10-06T16:07:39.055Z,16.90
2022-10-06T16:10:09.201Z,16.90
2022-10-06T16:12:38.317Z,16.90
2022-10-06T16:15:07.172Z,16.90
2022-10-06T16:17:34.786Z,16.90
2022-10-06T16:20:02.401Z,16.80
2022-10-06T16:22:30.231Z,16.70
2022-10-06T16:24:57.886Z,16.70
2022-10-06T16:27:27.183Z,16.70
2022-10-06T16:29:57.667Z,16.60
2022-10-06T16:32:25.263Z,16.50
2022-10-06T16:34:52.968Z,16.50
2022-10-06T16:37:21.137Z,16.50
2022-10-06T16:39:48.791Z,16.40
2022-10-06T16:42:16.784Z,16.30
2022-10-06T16:44:44.431Z,16.20
2022-10-06T16:47:12.128Z,16.20
2022-10-06T16:49:39.742Z,16.10
2022-10-06T16:52:07.411Z,16.10
2022-10-06T16:54:34.996Z,16.10
2022-10-06T16:57:06.677Z,15.90
2022-10-06T16:59:34.518Z,15.90
2022-10-06T17:02:03.095Z,15.80
2022-10-06T17:04:30.778Z,15.70
2022-10-06T17:06:59.310Z,15.70
2022-10-06T17:09:29.963Z,15.60
2022-10-06T17:12:00.533Z,15.50
2022-10-06T17:14:30.918Z,15.50
2022-10-06T17:16:59.502Z,15.40
2022-10-06T17:19:29.596Z,15.40
2022-10-06T17:21:59.977Z,15.30
2022-10-06T17:24:29.617Z,15.20
2022-10-06T17:26:58.327Z,15.10
2022-10-06T17:29:26.455Z,15.10
2022-10-06T17:31:58.763Z,15.00
2022-10-06T17:34:32.317Z,15.00
2022-10-06T17:37:02.283Z,14.90
2022-10-06T17:39:30.429Z,14.80
2022-10-06T17:41:58.049Z,14.80
2022-10-06T17:44:27.483Z,14.70
2022-10-06T17:46:58.526Z,14.60
2022-10-06T17:49:26.533Z,14.60
2022-10-06T17:51:55.704Z,14.60
2022-10-06T17:54:26.748Z,14.60
2022-10-06T17:56:57.848Z,14.50
2022-10-06T17:59:30.118Z,14.40
2022-10-06T18:02:00.867Z,14.40
2022-10-06T18:04:28.978Z,14.30
2022-10-06T18:06:57.398Z,14.20
2022-10-06T18:09:25.424Z,14.10
2022-10-06T18:11:56.193Z,14.00
2022-10-06T18:14:35.247Z,14.00
2022-10-06T18:17:04.018Z,13.90
2022-10-06T18:19:34.689Z,13.90
2022-10-06T18:22:10.567Z,13.80
2022-10-06T18:24:40.043Z,13.70
2022-10-06T18:27:08.510Z,13.70
2022-10-06T18:29:38.860Z,13.70
2022-10-06T18:37:43.218Z,13.60
2022-10-06T18:40:11.543Z,13.60
2022-10-06T18:42:39.544Z,13.50
2022-10-06T18:45:27.703Z,13.40
2022-10-06T18:48:14.278Z,13.20
2022-10-06T18:50:42.632Z,13.10
2022-10-06T18:53:10.360Z,13.10
2022-10-06T18:55:37.893Z,13.00
2022-10-06T18:58:06.426Z,13.00
2022-10-06T19:00:34.219Z,13.10
2022-10-06T19:03:02.036Z,13.00
2022-10-06T19:05:31.018Z,13.00
2022-10-06T19:07:58.687Z,12.90
2022-10-06T19:10:26.330Z,12.90
2022-10-06T19:12:53.958Z,12.90
2022-10-06T19:15:21.646Z,12.90
2022-10-06T19:17:50.000Z,12.90
2022-10-06T19:20:18.556Z,12.90
2022-10-06T19:22:47.628Z,12.90
2022-10-06T19:25:18.911Z,12.90
2022-10-06T19:27:47.173Z,12.90
2022-10-06T19:30:16.006Z,13.00
2022-10-06T19:32:43.672Z,12.90
2022-10-06T19:35:11.336Z,13.00
2022-10-06T19:37:39.243Z,12.80
2022-10-06T19:40:08.794Z,12.70
2022-10-06T19:42:48.379Z,12.70
2022-10-06T19:45:17.632Z,12.60
2022-10-06T19:47:46.199Z,12.60
2022-10-06T19:50:17.072Z,12.60
2022-10-06T19:52:45.382Z,12.50
2022-10-06T19:55:13.430Z,12.60
2022-10-06T19:57:41.581Z,12.60
2022-10-06T20:00:10.246Z,12.60
2022-10-06T20:02:43.096Z,12.60
2022-10-06T20:05:16.376Z,12.50
2022-10-06T20:07:46.576Z,12.50
2022-10-06T20:10:15.314Z,12.40
2022-10-06T20:12:43.169Z,12.40
2022-10-06T20:15:12.754Z,12.30
2022-10-06T20:17:42.357Z,12.30
2022-10-06T20:20:10.473Z,12.30
2022-10-06T20:22:38.054Z,12.30
2022-10-06T20:25:07.152Z,12.30
2022-10-06T20:27:34.816Z,12.20
2022-10-06T20:30:02.683Z,12.30
2022-10-06T20:32:30.300Z,12.20
2022-10-06T20:34:58.170Z,12.20
2022-10-06T20:37:25.746Z,12.20
2022-10-06T20:40:12.263Z,12.20
2022-10-06T20:42:44.655Z,12.10
2022-10-06T20:45:12.217Z,12.10
2022-10-06T20:47:39.777Z,12.00
2022-10-06T20:50:08.326Z,12.00
2022-10-06T20:52:38.375Z,12.00
2022-10-06T20:55:07.536Z,12.00
2022-10-06T20:57:35.139Z,12.00
2022-10-06T21:00:03.363Z,11.90
2022-10-06T21:02:32.061Z,11.90
2022-10-06T21:05:01.495Z,11.90
2022-10-06T21:07:29.093Z,11.90
2022-10-06T21:09:56.846Z,12.00
2022-10-06T21:12:24.405Z,12.00
2022-10-06T21:14:52.052Z,12.00
2022-10-06T21:17:19.826Z,12.00
2022-10-06T21:19:47.537Z,11.90
2022-10-06T21:22:15.112Z,11.90
2022-10-06T21:24:42.705Z,11.80
2022-10-06T21:27:10.297Z,11.80
2022-10-06T21:29:37.909Z,11.80
2022-10-06T21:32:05.460Z,11.70
2022-10-06T21:34:33.203Z,11.70
2022-10-06T21:37:00.768Z,11.70
2022-10-06T21:39:28.417Z,11.60
2022-10-06T21:41:56.104Z,11.60
2022-10-06T21:44:23.747Z,11.60
2022-10-06T21:46:56.192Z,11.60
2022-10-06T21:49:25.552Z,11.60
2022-10-06T21:51:56.173Z,11.60
2022-10-06T21:54:24.365Z,11.60
2022-10-06T21:56:52.180Z,11.60
2022-10-06T21:59:19.749Z,11.60
2022-10-06T22:01:50.325Z,11.60
2022-10-06T22:04:18.990Z,11.60
2022-10-06T22:06:50.105Z,11.50
2022-10-06T22:09:19.669Z,11.50
2022-10-06T22:11:48.073Z,11.40
2022-10-06T22:14:18.105Z,11.40
2022-10-06T22:16:46.200Z,11.50
2022-10-06T22:19:16.238Z,11.50
2022-10-06T22:21:47.217Z,11.40
2022-10-06T22:24:20.985Z,11.40
2022-10-06T22:26:49.811Z,11.30
2022-10-06T22:29:19.553Z,11.30
2022-10-06T22:31:48.261Z,11.30
2022-10-06T22:34:19.069Z,11.30
2022-10-06T22:36:46.779Z,11.30
2022-10-06T22:39:14.807Z,11.30
2022-10-06T22:41:42.486Z,11.30
2022-10-06T22:44:10.095Z,11.30
2022-10-06T22:46:38.376Z,11.30
2022-10-06T22:49:06.479Z,11.30
2022-10-06T22:51:34.808Z,11.30
2022-10-06T22:54:02.564Z,11.30
2022-10-06T22:56:33.000Z,11.30
2022-10-06T22:59:01.017Z,11.30
2022-10-06T23:01:30.025Z,11.30
2022-10-06T23:03:58.090Z,11.20
2022-10-06T23:06:26.706Z,11.20
2022-10-06T23:08:54.248Z,11.20
2022-10-06T23:11:22.403Z,11.10
2022-10-06T23:13:50.656Z,11.10
2022-10-06T23:16:20.039Z,11.10
2022-10-06T23:18:48.657Z,11.10
2022-10-06T23:21:23.984Z,11.00
2022-10-06T23:23:59.235Z,11.10
2022-10-06T23:26:27.764Z,11.00
2022-10-06T23:28:58.506Z,11.00
2022-10-06T23:31:27.652Z,10.90
2022-10-06T23:33:56.048Z,10.90
2022-10-06T23:36:24.239Z,10.90
2022-10-06T23:38:51.948Z,10.90
2022-10-06T23:41:20.027Z,10.90
2022-10-06T23:43:47.710Z,10.90
2022-10-06T23:46:15.504Z,10.90
2022-10-06T23:48:43.410Z,10.90
2022-10-06T23:51:15.128Z,11.00
2022-10-06T23:53:43.372Z,10.90
2022-10-06T23:56:11.461Z,10.90
2022-10-06T23:58:39.294Z,10.90
